Time;durP1;ratioP1;P1;durP2;ratioP2;P2;SDS_P1;SDS_P2;PMS_P1;PMS_P2;Temp;Humidity;BMP_temperature;BMP_pressure;BME280_temperature;BME280_humidity;BME280_pressure;Samples;Min_cycle;Max_cycle;Signal;HPM_P1;HPM_P2
2023/03/01 00:01:21;;;;;;;32.53;17.20;;;2.50;66.60;;;;;;4928724;29;20229;-78
2023/03/01 00:03:51;;;;;;;27.27;15.93;;;2.50;66.60;;;;;;4937401;29;20199;-79
2023/03/01 00:06:20;;;;;;;29.63;16.80;;;2.50;66.60;;;;;;4929210;29;20240;-78
2023/03/01 00:08:49;;;;;;;25.30;15.80;;;2.50;66.60;;;;;;4927417;29;20253;-78
2023/03/01 00:11:20;;;;;;;26.77;16.63;;;2.50;66.50;;;;;;4929973;29;20204;-80
2023/03/01 00:13:50;;;;;;;27.75;17.08;;;2.40;66.40;;;;;;4932104;29;20223;-79
2023/03/01 00:16:21;;;;;;;31.70;16.77;;;2.40;66.40;;;;;;4932068;29;20227;-78
2023/03/01 00:18:51;;;;;;;26.58;15.85;;;2.30;66.50;;;;;;4927236;29;20208;-78
2023/03/01 00:21:21;;;;;;;28.10;16.60;;;2.30;66.50;;;;;;4937179;29;20258;-78
2023/03/01 00:23:49;;;;;;;31.33;17.73;;;2.20;66.50;;;;;;4929004;29;20269;-78
2023/03/01 00:26:20;;;;;;;28.02;16.35;;;2.20;66.60;;;;;;4937377;29;20200;-79
2023/03/01 00:28:48;;;;;;;33.35;17.52;;;2.20;66.70;;;;;;4936901;29;20670;-79
2023/03/01 00:31:18;;;;;;;29.17;16.98;;;2.20;66.80;;;;;;4913213;29;20256;-79
2023/03/01 00:33:46;;;;;;;28.05;16.92;;;2.20;66.90;;;;;;4926183;29;20583;-79
2023/03/01 00:36:16;;;;;;;27.52;17.08;;;2.20;66.80;;;;;;4921709;29;20207;-79
2023/03/01 00:38:46;;;;;;;36.78;18.40;;;2.20;66.80;;;;;;4931068;29;20201;-83
2023/03/01 00:41:16;;;;;;;28.83;17.48;;;2.20;66.90;;;;;;4939228;29;20234;-78
2023/03/01 00:43:45;;;;;;;29.70;17.35;;;2.30;67.00;;;;;;4929539;29;20206;-78
2023/03/01 00:46:14;;;;;;;34.80;18.92;;;2.30;67.00;;;;;;4933774;29;20536;-77
2023/03/01 00:48:44;;;;;;;29.33;16.63;;;2.40;67.00;;;;;;4932194;29;20265;-81
2023/03/01 00:51:15;;;;;;;31.63;18.55;;;2.40;67.10;;;;;;4926452;29;20201;-83
2023/03/01 00:53:45;;;;;;;35.53;19.60;;;2.50;67.00;;;;;;4928369;29;20221;-81
2023/03/01 00:56:15;;;;;;;42.58;21.02;;;2.50;66.90;;;;;;4926043;29;20621;-80
2023/03/01 00:58:44;;;;;;;30.17;17.42;;;2.40;66.80;;;;;;4934950;29;20319;-81
2023/03/01 01:01:17;;;;;;;33.92;19.45;;;2.40;66.60;;;;;;4930109;29;20228;-79
2023/03/01 01:03:47;;;;;;;55.10;25.15;;;2.30;66.60;;;;;;4937256;29;20254;-78
2023/03/01 01:06:17;;;;;;;42.92;21.33;;;2.30;66.60;;;;;;4935313;29;20286;-78
2023/03/01 01:08:47;;;;;;;31.52;16.98;;;2.20;66.60;;;;;;4941541;29;20221;-79
2023/03/01 01:11:16;;;;;;;62.90;28.48;;;2.10;66.70;;;;;;4942545;29;20223;-77
2023/03/01 01:13:46;;;;;;;47.42;22.42;;;2.10;66.70;;;;;;4932467;29;20215;-81
2023/03/01 01:16:15;;;;;;;43.67;22.17;;;2.10;66.70;;;;;;4927619;29;20264;-81
2023/03/01 01:18:44;;;;;;;33.13;19.40;;;2.00;66.70;;;;;;4927985;29;20212;-82
2023/03/01 01:21:14;;;;;;;32.50;17.88;;;2.00;66.80;;;;;;4933112;29;20204;-82
2023/03/01 01:23:43;;;;;;;30.92;17.92;;;2.00;67.00;;;;;;4928159;29;20216;-82
2023/03/01 01:26:16;;;;;;;35.67;18.30;;;2.00;67.00;;;;;;4946287;29;20200;-82
2023/03/01 01:28:43;;;;;;;28.70;16.98;;;2.00;67.10;;;;;;4933233;29;20208;-83
2023/03/01 01:31:14;;;;;;;30.13;17.77;;;2.00;67.10;;;;;;4924820;29;20237;-82
2023/03/01 01:33:43;;;;;;;31.58;17.98;;;2.00;67.10;;;;;;4934607;29;20824;-79
2023/03/01 01:36:12;;;;;;;31.25;18.42;;;2.00;67.20;;;;;;4918740;29;20226;-80
2023/03/01 01:38:42;;;;;;;31.48;17.85;;;2.00;67.30;;;;;;4921397;29;20208;-79
2023/03/01 01:41:12;;;;;;;31.20;19.02;;;2.00;67.30;;;;;;4927695;29;20215;-79
2023/03/01 01:43:46;;;;;;;34.05;18.92;;;2.10;67.40;;;;;;4936785;29;20204;-79
2023/03/01 01:46:22;;;;;;;32.03;17.80;;;2.10;67.30;;;;;;4918752;29;20212;-80
2023/03/01 01:48:55;;;;;;;32.55;17.45;;;2.10;67.30;;;;;;4931106;29;20265;-79
2023/03/01 01:51:28;;;;;;;35.20;17.00;;;2.20;67.40;;;;;;4933221;29;20212;-79
2023/03/01 01:54:00;;;;;;;28.08;16.20;;;2.20;67.30;;;;;;4923228;29;20204;-79
2023/03/01 01:56:30;;;;;;;30.50;16.77;;;2.20;67.20;;;;;;4933032;29;20274;-79
2023/03/01 01:59:02;;;;;;;36.78;18.77;;;2.20;67.20;;;;;;4911061;29;20207;-79
2023/03/01 02:01:30;;;;;;;28.52;17.75;;;2.20;67.20;;;;;;4932492;29;20315;-79
2023/03/01 02:03:59;;;;;;;30.20;17.95;;;2.20;67.10;;;;;;4928282;29;20197;-79
2023/03/01 02:06:32;;;;;;;31.88;18.92;;;2.20;67.10;;;;;;4930522;29;20211;-79
2023/03/01 02:09:05;;;;;;;29.08;16.98;;;2.20;66.90;;;;;;4944488;29;20210;-79
2023/03/01 02:11:37;;;;;;;31.75;18.20;;;2.10;67.00;;;;;;4909435;29;20195;-79
2023/03/01 02:14:07;;;;;;;29.30;17.80;;;2.10;67.00;;;;;;4934365;29;20211;-80
2023/03/01 02:16:37;;;;;;;33.45;16.45;;;2.10;67.00;;;;;;4934909;29;20209;-78
2023/03/01 02:19:06;;;;;;;27.40;17.02;;;2.10;66.90;;;;;;4931023;29;20205;-78
2023/03/01 02:21:42;;;;;;;28.70;16.60;;;2.00;67.00;;;;;;4932665;29;20278;-78
2023/03/01 02:24:22;;;;;;;30.42;17.40;;;2.00;66.90;;;;;;4920524;29;20212;-78
2023/03/01 02:26:55;;;;;;;31.05;17.58;;;2.00;67.10;;;;;;4925015;29;20212;-78
2023/03/01 02:29:26;;;;;;;30.42;15.82;;;2.00;67.10;;;;;;4936106;29;20209;-78
2023/03/01 02:31:57;;;;;;;28.92;16.67;;;1.90;67.20;;;;;;4919469;29;20227;-79
2023/03/01 02:34:28;;;;;;;30.33;17.13;;;1.90;67.10;;;;;;4929399;28;20287;-78
2023/03/01 02:37:01;;;;;;;27.70;17.60;;;1.90;67.20;;;;;;4921060;29;20213;-78
2023/03/01 02:39:35;;;;;;;30.02;17.27;;;1.90;67.20;;;;;;4918907;29;20213;-79
2023/03/01 02:42:05;;;;;;;30.40;16.85;;;1.90;67.20;;;;;;4924785;29;20243;-80
2023/03/01 02:44:34;;;;;;;31.58;17.55;;;1.90;67.30;;;;;;4938074;29;20212;-80
2023/03/01 02:47:04;;;;;;;41.67;23.42;;;1.90;67.40;;;;;;4924116;29;20659;-79
2023/03/01 02:49:34;;;;;;;35.05;19.50;;;1.90;67.40;;;;;;4937786;29;20218;-78
2023/03/01 02:52:37;;;;;;;33.80;18.17;;;1.90;67.40;;;;;;4929087;29;20275;-78
2023/03/01 02:55:11;;;;;;;33.17;17.20;;;2.00;67.40;;;;;;4842518;29;20360;-79
2023/03/01 02:57:42;;;;;;;30.88;18.42;;;2.00;67.40;;;;;;4902490;29;20217;-78
2023/03/01 03:00:19;;;;;;;39.80;19.40;;;2.00;67.30;;;;;;4934236;29;20216;-78
2023/03/01 03:02:48;;;;;;;32.95;19.08;;;2.00;67.30;;;;;;4941000;29;20296;-78
2023/03/01 03:05:32;;;;;;;45.25;22.90;;;1.90;67.30;;;;;;4943515;29;20204;-78
2023/03/01 03:08:03;;;;;;;48.15;24.05;;;1.90;67.30;;;;;;4912659;29;20220;-78
2023/03/01 03:10:39;;;;;;;45.65;23.77;;;1.90;67.30;;;;;;4930674;29;20308;-78
2023/03/01 03:13:11;;;;;;;31.50;18.50;;;1.90;67.30;;;;;;4932985;29;20210;-79
2023/03/01 03:15:41;;;;;;;31.40;18.40;;;1.90;67.40;;;;;;4933573;29;20296;-78
2023/03/01 03:18:12;;;;;;;47.70;24.40;;;1.90;67.20;;;;;;4933342;29;20215;-78
2023/03/01 03:20:42;;;;;;;40.70;21.15;;;1.90;67.10;;;;;;4940166;29;20211;-78
2023/03/01 03:23:10;;;;;;;29.27;17.50;;;1.80;67.00;;;;;;4943997;29;20280;-78
2023/03/01 03:25:38;;;;;;;33.25;18.25;;;1.70;67.00;;;;;;4930777;29;20219;-78
2023/03/01 03:28:10;;;;;;;28.35;17.30;;;1.70;67.10;;;;;;4933973;29;20208;-79
2023/03/01 03:30:41;;;;;;;28.10;17.83;;;1.70;67.30;;;;;;4941539;29;20314;-78
2023/03/01 03:33:10;;;;;;;33.72;18.20;;;1.70;67.30;;;;;;4935432;29;20213;-80
2023/03/01 03:35:43;;;;;;;38.08;21.90;;;1.60;67.10;;;;;;4935274;29;20220;-78
2023/03/01 03:38:16;;;;;;;35.85;19.35;;;1.60;67.10;;;;;;4935367;29;20222;-80
2023/03/01 03:40:46;;;;;;;29.95;16.85;;;1.60;67.30;;;;;;4933546;29;20288;-79
2023/03/01 03:43:16;;;;;;;34.38;18.50;;;1.50;67.30;;;;;;4944259;29;20219;-79
2023/03/01 03:45:47;;;;;;;28.95;16.75;;;1.50;67.30;;;;;;4913757;29;20823;-78
2023/03/01 03:48:17;;;;;;;35.80;18.58;;;1.50;67.40;;;;;;4936571;29;20218;-78
2023/03/01 03:50:50;;;;;;;31.58;18.95;;;1.50;67.40;;;;;;4939816;29;20205;-77
2023/03/01 03:53:19;;;;;;;31.20;18.27;;;1.50;67.40;;;;;;4944134;29;20203;-78
2023/03/01 03:55:49;;;;;;;32.78;17.75;;;1.50;67.40;;;;;;4931509;29;20596;-79
2023/03/01 03:58:19;;;;;;;30.67;18.67;;;1.50;67.40;;;;;;4940930;29;20208;-78
2023/03/01 04:00:50;;;;;;;32.58;18.13;;;1.50;67.50;;;;;;4926304;29;20298;-77
2023/03/01 04:03:20;;;;;;;30.45;17.58;;;1.50;67.50;;;;;;4937544;29;20259;-77
2023/03/01 04:06:05;;;;;;;32.55;17.58;;;1.50;67.50;;;;;;4938608;29;20674;-77
2023/03/01 04:08:33;;;;;;;35.55;18.65;;;1.50;67.50;;;;;;4933994;29;20242;-83
2023/03/01 04:11:25;;;;;;;29.67;17.00;;;1.50;67.50;;;;;;4930226;29;20213;-83
2023/03/01 04:13:53;;;;;;;38.70;21.00;;;1.50;67.50;;;;;;4929263;29;20212;-82
2023/03/01 04:16:23;;;;;;;46.45;24.63;;;1.50;67.50;;;;;;4931869;29;20227;-79
2023/03/01 04:18:52;;;;;;;43.33;22.17;;;1.50;67.40;;;;;;4926627;29;20220;-80
2023/03/01 04:21:20;;;;;;;38.40;20.63;;;1.50;67.50;;;;;;4916923;29;20201;-82
2023/03/01 04:23:48;;;;;;;36.90;19.17;;;1.50;67.50;;;;;;4920887;29;20227;-80
2023/03/01 04:26:16;;;;;;;37.17;18.80;;;1.50;67.50;;;;;;4935736;29;20196;-82
2023/03/01 04:28:45;;;;;;;45.65;20.55;;;1.50;67.50;;;;;;4930296;29;20204;-84
2023/03/01 04:31:18;;;;;;;45.28;21.80;;;1.50;67.50;;;;;;4926918;29;20238;-83
2023/03/01 04:33:51;;;;;;;40.85;21.80;;;1.50;67.70;;;;;;4931991;29;20239;-83
2023/03/01 04:36:20;;;;;;;35.80;19.08;;;1.50;67.70;;;;;;4935478;29;20744;-79
2023/03/01 04:38:49;;;;;;;33.80;19.50;;;1.50;67.70;;;;;;4938042;29;20940;-80
2023/03/01 04:41:19;;;;;;;35.25;19.40;;;1.60;67.70;;;;;;4935123;29;20219;-80
2023/03/01 04:43:48;;;;;;;30.55;18.17;;;1.60;67.60;;;;;;4935977;29;20216;-79
2023/03/01 04:46:19;;;;;;;30.55;18.55;;;1.60;67.50;;;;;;4941139;29;20252;-79
2023/03/01 04:48:49;;;;;;;28.27;16.75;;;1.60;67.60;;;;;;4931792;29;20352;-79
2023/03/01 04:51:18;;;;;;;29.17;17.75;;;1.50;67.70;;;;;;4933754;29;20201;-79
2023/03/01 04:53:46;;;;;;;33.47;18.15;;;1.50;67.80;;;;;;4933613;29;20259;-79
2023/03/01 04:56:15;;;;;;;34.85;18.55;;;1.60;67.80;;;;;;4945875;28;20262;-79
2023/03/01 04:58:43;;;;;;;33.67;18.98;;;1.60;67.90;;;;;;4925452;29;20683;-78
2023/03/01 05:01:14;;;;;;;35.50;18.70;;;1.70;67.90;;;;;;4922786;29;20999;-79
2023/03/01 05:03:44;;;;;;;33.15;18.05;;;1.70;67.90;;;;;;4932997;29;20287;-78
2023/03/01 05:06:14;;;;;;;28.42;17.80;;;1.70;67.80;;;;;;4931415;29;20263;-79
2023/03/01 05:08:43;;;;;;;31.05;17.48;;;1.70;67.90;;;;;;4936397;29;20608;-79
2023/03/01 05:11:11;;;;;;;32.67;19.52;;;1.80;67.90;;;;;;4932778;29;20287;-79
2023/03/01 05:13:40;;;;;;;32.20;18.63;;;1.80;67.80;;;;;;4935709;29;22102;-81
2023/03/01 05:16:10;;;;;;;30.02;19.25;;;1.80;67.80;;;;;;4933333;29;20223;-78
2023/03/01 05:18:57;;;;;;;36.15;19.02;;;1.80;67.90;;;;;;4924385;29;20204;-79
2023/03/01 05:21:27;;;;;;;31.02;17.75;;;1.80;67.90;;;;;;4924165;29;20219;-79
2023/03/01 05:23:55;;;;;;;30.50;17.45;;;1.80;67.90;;;;;;4928156;29;20209;-79
2023/03/01 05:26:28;;;;;;;31.92;19.23;;;1.80;67.90;;;;;;4944022;29;20255;-80
2023/03/01 05:28:58;;;;;;;29.33;17.17;;;1.80;67.80;;;;;;4933056;29;20195;-80
2023/03/01 05:31:27;;;;;;;33.05;17.08;;;1.80;67.70;;;;;;4937582;29;20463;-80
2023/03/01 05:33:54;;;;;;;34.75;18.13;;;1.70;67.60;;;;;;4931027;29;20235;-79
2023/03/01 05:36:22;;;;;;;29.55;16.95;;;1.60;67.60;;;;;;4933442;29;20238;-79
2023/03/01 05:38:58;;;;;;;37.17;18.58;;;1.50;67.70;;;;;;4929457;29;20205;-80
2023/03/01 05:41:25;;;;;;;30.00;17.70;;;1.50;67.80;;;;;;4933339;29;20211;-78
2023/03/01 05:43:53;;;;;;;30.48;17.92;;;1.40;67.80;;;;;;4932699;29;20211;-78
2023/03/01 05:46:24;;;;;;;32.15;19.05;;;1.40;67.90;;;;;;4939185;29;20652;-78
2023/03/01 05:48:52;;;;;;;46.83;22.80;;;1.30;68.00;;;;;;4927405;29;20212;-79
2023/03/01 05:51:22;;;;;;;39.88;21.90;;;1.30;68.00;;;;;;4937571;29;20204;-79
2023/03/01 05:53:49;;;;;;;37.20;19.98;;;1.30;68.10;;;;;;4930183;29;20209;-80
2023/03/01 05:56:19;;;;;;;38.85;22.83;;;1.20;68.20;;;;;;4935422;29;20210;-79
2023/03/01 05:58:49;;;;;;;35.13;20.00;;;1.20;68.10;;;;;;4932230;29;20191;-79
2023/03/01 06:01:17;;;;;;;35.03;19.98;;;1.20;68.20;;;;;;4925261;29;20238;-79
2023/03/01 06:03:45;;;;;;;35.90;19.45;;;1.10;68.30;;;;;;4926665;29;20247;-78
2023/03/01 06:06:13;;;;;;;35.95;19.65;;;1.10;68.60;;;;;;4930339;29;20631;-77
2023/03/01 06:08:41;;;;;;;37.30;19.67;;;1.10;68.50;;;;;;4929235;29;20306;-78
2023/03/01 06:11:09;;;;;;;29.65;19.40;;;1.10;68.60;;;;;;4920363;29;20252;-79
2023/03/01 06:13:38;;;;;;;34.42;19.20;;;1.10;68.50;;;;;;4935600;29;20215;-80
2023/03/01 06:16:07;;;;;;;49.78;26.83;;;1.10;68.70;;;;;;4910505;29;20224;-78
2023/03/01 06:18:38;;;;;;;41.80;22.25;;;1.10;68.70;;;;;;4936190;29;20272;-79
2023/03/01 06:21:08;;;;;;;39.78;22.02;;;1.10;68.80;;;;;;4932976;29;20681;-79
2023/03/01 06:23:36;;;;;;;48.03;24.83;;;1.10;68.80;;;;;;4924712;29;20212;-79
2023/03/01 06:26:11;;;;;;;31.80;19.15;;;1.10;68.70;;;;;;4917955;29;20263;-80
2023/03/01 06:28:41;;;;;;;31.70;18.85;;;1.10;68.70;;;;;;4930686;29;20255;-80
2023/03/01 06:31:10;;;;;;;34.95;19.52;;;1.20;68.70;;;;;;4928279;29;20237;-79
2023/03/01 06:33:38;;;;;;;36.38;19.42;;;1.20;68.80;;;;;;4933258;29;20734;-80
2023/03/01 06:36:07;;;;;;;30.58;17.67;;;1.20;68.70;;;;;;4940008;29;20726;-79
2023/03/01 06:38:35;;;;;;;32.30;18.52;;;1.20;68.80;;;;;;4928320;29;20294;-80
2023/03/01 06:41:04;;;;;;;36.08;20.17;;;1.20;68.80;;;;;;4934545;29;20211;-80
2023/03/01 06:43:32;;;;;;;41.20;21.02;;;1.20;68.90;;;;;;4936908;29;20208;-79
2023/03/01 06:46:04;;;;;;;37.67;21.25;;;1.20;68.90;;;;;;4931990;29;20204;-79
2023/03/01 06:48:32;;;;;;;44.85;23.92;;;1.20;69.10;;;;;;4927443;29;20216;-79
2023/03/01 06:51:02;;;;;;;41.85;24.77;;;1.20;69.10;;;;;;4918741;29;20219;-79
2023/03/01 06:53:30;;;;;;;47.65;24.80;;;1.30;68.90;;;;;;4935780;29;20262;-80
2023/03/01 06:55:59;;;;;;;49.00;24.05;;;1.30;68.90;;;;;;4926967;29;20204;-80
2023/03/01 06:58:27;;;;;;;63.92;29.33;;;1.20;69.10;;;;;;4924409;29;20231;-81
2023/03/01 07:00:55;;;;;;;51.25;28.15;;;1.20;69.20;;;;;;4924172;29;20233;-80
2023/03/01 07:03:25;;;;;;;41.45;22.83;;;1.30;69.20;;;;;;4940344;29;20200;-80
2023/03/01 07:05:53;;;;;;;36.13;21.02;;;1.30;69.20;;;;;;4916666;29;20303;-80
2023/03/01 07:08:21;;;;;;;35.30;20.08;;;1.30;69.20;;;;;;4931004;29;20200;-79
2023/03/01 07:10:49;;;;;;;41.75;21.90;;;1.30;69.20;;;;;;4921882;29;20216;-80
2023/03/01 07:13:19;;;;;;;35.92;20.52;;;1.40;69.10;;;;;;4936113;29;20232;-79
2023/03/01 07:15:47;;;;;;;38.75;20.98;;;1.40;69.20;;;;;;4931770;29;20264;-79
2023/03/01 07:18:15;;;;;;;28.25;17.65;;;1.50;69.10;;;;;;4928529;29;20223;-80
2023/03/01 07:20:44;;;;;;;34.53;18.73;;;1.50;69.10;;;;;;4932654;29;20215;-80
2023/03/01 07:23:12;;;;;;;33.28;19.63;;;1.50;69.10;;;;;;4935909;29;20204;-79
2023/03/01 07:25:40;;;;;;;32.55;18.92;;;1.50;69.20;;;;;;4923762;29;20209;-80
2023/03/01 07:28:08;;;;;;;33.55;19.85;;;1.60;69.20;;;;;;4926638;29;20214;-79
2023/03/01 07:30:36;;;;;;;36.83;21.67;;;1.50;69.10;;;;;;4930453;29;20241;-79
2023/03/01 07:33:04;;;;;;;30.63;18.55;;;1.50;69.20;;;;;;4924152;29;20215;-80
2023/03/01 07:35:33;;;;;;;34.92;18.80;;;1.60;69.20;;;;;;4942335;29;20248;-80
2023/03/01 07:38:02;;;;;;;32.47;19.55;;;1.60;69.20;;;;;;4926463;29;20216;-80
2023/03/01 07:40:30;;;;;;;31.70;18.17;;;1.60;69.20;;;;;;4941421;29;20223;-79
2023/03/01 07:42:59;;;;;;;35.72;19.20;;;1.60;69.20;;;;;;4940826;29;20224;-79
2023/03/01 07:45:27;;;;;;;31.33;18.40;;;1.70;69.30;;;;;;4941795;29;20245;-80
2023/03/01 07:47:55;;;;;;;33.95;18.85;;;1.80;69.20;;;;;;4920354;29;20244;-80
2023/03/01 07:50:23;;;;;;;32.92;18.67;;;1.90;69.10;;;;;;4940994;29;20208;-81
2023/03/01 07:52:52;;;;;;;36.75;21.45;;;1.90;69.10;;;;;;4933796;29;20205;-80
2023/03/01 07:55:22;;;;;;;35.67;18.40;;;1.90;69.20;;;;;;4934404;29;20215;-79
2023/03/01 07:57:50;;;;;;;39.03;21.52;;;1.90;69.20;;;;;;4932246;29;20225;-79
2023/03/01 08:00:18;;;;;;;35.67;19.20;;;2.00;69.30;;;;;;4948347;29;20204;-80
2023/03/01 08:02:46;;;;;;;37.00;21.48;;;2.00;69.00;;;;;;4939984;29;20239;-80
2023/03/01 08:05:14;;;;;;;39.13;21.38;;;2.10;69.00;;;;;;4928067;29;20205;-80
2023/03/01 08:07:42;;;;;;;29.55;18.10;;;2.10;69.10;;;;;;4935332;29;20197;-80
2023/03/01 08:10:11;;;;;;;35.55;18.90;;;2.10;69.00;;;;;;4918321;29;20211;-80
2023/03/01 08:12:41;;;;;;;31.27;18.35;;;2.20;69.00;;;;;;4934346;29;20216;-80
2023/03/01 08:15:10;;;;;;;36.80;20.60;;;2.20;69.00;;;;;;4926798;29;20193;-80
2023/03/01 08:17:40;;;;;;;32.90;18.17;;;2.30;69.00;;;;;;4929572;29;20299;-80
2023/03/01 08:20:12;;;;;;;30.75;19.15;;;2.30;68.70;;;;;;4938841;29;20200;-80
2023/03/01 08:22:40;;;;;;;30.10;17.67;;;2.30;68.80;;;;;;4933841;29;20219;-80
2023/03/01 08:25:08;;;;;;;30.50;17.83;;;2.40;68.60;;;;;;4932747;29;20678;-79
2023/03/01 08:27:36;;;;;;;36.47;21.02;;;2.40;68.90;;;;;;4930484;29;20266;-80
2023/03/01 08:30:07;;;;;;;30.67;17.33;;;2.50;68.70;;;;;;4934078;29;20217;-80
2023/03/01 08:32:39;;;;;;;32.70;18.02;;;2.50;68.30;;;;;;4931104;28;20232;-80
2023/03/01 08:35:08;;;;;;;31.58;18.67;;;2.50;68.30;;;;;;4927657;29;20245;-80
2023/03/01 08:37:36;;;;;;;33.78;18.23;;;2.60;68.40;;;;;;4908595;29;20655;-79
2023/03/01 08:40:06;;;;;;;31.45;17.52;;;2.70;68.50;;;;;;4930781;29;20853;-80
2023/03/01 08:42:34;;;;;;;31.35;19.00;;;2.80;68.40;;;;;;4931444;29;20690;-80
2023/03/01 08:45:02;;;;;;;32.78;19.10;;;2.80;68.10;;;;;;4941525;29;20200;-80
2023/03/01 08:47:33;;;;;;;31.25;19.17;;;2.90;68.00;;;;;;4938924;29;20211;-80
2023/03/01 08:50:01;;;;;;;30.95;18.05;;;2.90;68.00;;;;;;4935698;29;20201;-80
2023/03/01 08:52:29;;;;;;;40.00;19.38;;;2.90;67.40;;;;;;4924281;29;20211;-80
2023/03/01 08:54:57;;;;;;;36.03;20.42;;;3.00;67.50;;;;;;4928744;29;20819;-80
2023/03/01 08:57:25;;;;;;;32.42;20.08;;;3.00;67.50;;;;;;4943740;29;20196;-80
2023/03/01 09:00:17;;;;;;;32.95;19.95;;;3.00;67.30;;;;;;4923966;29;20219;-80
2023/03/01 09:02:46;;;;;;;33.15;20.33;;;3.00;67.40;;;;;;4922680;29;20240;-79
2023/03/01 09:05:14;;;;;;;32.17;18.88;;;3.10;67.50;;;;;;4939190;29;20223;-80
2023/03/01 09:07:42;;;;;;;33.20;19.90;;;3.10;67.40;;;;;;4921667;29;20212;-80
2023/03/01 09:10:11;;;;;;;35.65;20.70;;;3.20;67.40;;;;;;4935870;29;20201;-80
2023/03/01 09:12:39;;;;;;;32.60;19.08;;;3.20;67.20;;;;;;4924302;29;20565;-80
2023/03/01 09:15:08;;;;;;;29.88;18.90;;;3.20;67.20;;;;;;4928361;29;20214;-80
2023/03/01 09:17:36;;;;;;;38.65;20.48;;;3.30;67.20;;;;;;4939367;29;20204;-81
2023/03/01 09:20:07;;;;;;;36.70;19.02;;;3.40;67.20;;;;;;4939932;29;20228;-80
2023/03/01 09:22:35;;;;;;;35.45;20.00;;;3.40;67.10;;;;;;4943033;29;20583;-80
2023/03/01 09:25:03;;;;;;;36.05;20.70;;;3.40;66.90;;;;;;4932395;29;20200;-80
2023/03/01 09:27:31;;;;;;;37.50;21.55;;;3.40;66.80;;;;;;4918076;29;20548;-80
2023/03/01 09:30:20;;;;;;;39.38;20.70;;;3.60;66.80;;;;;;4942757;29;20195;-80
2023/03/01 09:32:48;;;;;;;33.67;20.95;;;3.60;66.80;;;;;;4921362;29;20224;-79
2023/03/01 09:35:19;;;;;;;31.65;18.23;;;3.60;66.60;;;;;;4917275;29;20219;-80
2023/03/01 09:37:49;;;;;;;30.70;18.55;;;3.60;66.50;;;;;;4911793;29;20640;-80
2023/03/01 09:40:21;;;;;;;35.38;19.20;;;3.70;66.40;;;;;;4934968;29;20221;-80
2023/03/01 09:42:54;;;;;;;34.50;19.77;;;3.80;66.50;;;;;;4929938;29;20200;-80
2023/03/01 09:45:28;;;;;;;39.40;20.27;;;3.80;66.30;;;;;;4913605;29;20601;-80
2023/03/01 09:47:57;;;;;;;37.90;19.52;;;3.80;66.30;;;;;;4929174;29;20275;-80
2023/03/01 09:50:32;;;;;;;34.65;19.67;;;3.90;66.10;;;;;;4921109;29;20211;-80
2023/03/01 09:53:03;;;;;;;40.63;20.60;;;3.90;66.00;;;;;;4936105;29;20203;-80
2023/03/01 09:55:37;;;;;;;43.38;20.58;;;3.90;65.90;;;;;;4925099;29;20203;-79
2023/03/01 09:58:30;;;;;;;31.63;18.60;;;3.90;65.70;;;;;;4937111;29;20203;-80
2023/03/01 10:01:03;;;;;;;34.67;19.30;;;4.00;65.60;;;;;;4933030;29;20224;-80
2023/03/01 10:03:40;;;;;;;32.00;18.80;;;4.00;65.40;;;;;;4933029;29;20210;-80
2023/03/01 10:06:15;;;;;;;32.47;19.33;;;4.10;65.40;;;;;;4932158;29;20212;-80
2023/03/01 10:09:04;;;;;;;32.40;19.00;;;4.10;65.40;;;;;;4937507;29;20272;-80
2023/03/01 10:11:36;;;;;;;31.70;19.35;;;4.10;65.40;;;;;;4925481;29;20204;-80
2023/03/01 10:14:14;;;;;;;31.83;19.98;;;4.20;65.30;;;;;;4928661;29;20749;-80
2023/03/01 10:16:49;;;;;;;37.85;19.30;;;4.30;65.40;;;;;;4932509;29;20203;-79
2023/03/01 10:19:24;;;;;;;36.00;20.80;;;4.30;65.10;;;;;;4925965;29;20215;-79
2023/03/01 10:21:54;;;;;;;31.45;19.08;;;4.30;65.10;;;;;;4934227;29;20730;-81
2023/03/01 10:24:22;;;;;;;31.95;18.85;;;4.30;64.90;;;;;;4923741;29;20565;-81
2023/03/01 10:26:56;;;;;;;32.42;20.23;;;4.40;64.90;;;;;;4920048;29;20308;-80
2023/03/01 10:29:31;;;;;;;33.20;20.02;;;4.50;64.50;;;;;;4937200;29;20287;-80
2023/03/01 10:32:00;;;;;;;37.13;20.13;;;4.40;64.40;;;;;;4932955;29;20246;-80
2023/03/01 10:34:30;;;;;;;31.75;18.55;;;4.50;64.50;;;;;;4931988;29;20318;-80
2023/03/01 10:37:09;;;;;;;35.22;20.25;;;4.50;64.50;;;;;;4944686;29;20203;-80
2023/03/01 10:39:37;;;;;;;31.52;18.95;;;4.50;64.40;;;;;;4933001;29;20239;-80
2023/03/01 10:42:09;;;;;;;32.65;19.30;;;4.60;64.40;;;;;;4930537;29;20705;-80
2023/03/01 10:44:43;;;;;;;28.00;18.30;;;4.70;64.50;;;;;;4922596;29;20204;-80
2023/03/01 10:47:21;;;;;;;31.17;19.33;;;4.70;64.00;;;;;;4929655;29;20200;-80
2023/03/01 10:49:54;;;;;;;45.47;27.73;;;4.80;63.80;;;;;;4911926;29;20205;-81
2023/03/01 10:52:26;;;;;;;30.33;18.88;;;4.80;64.00;;;;;;4932163;29;20212;-79
2023/03/01 10:54:57;;;;;;;35.00;18.98;;;4.80;64.00;;;;;;4932652;29;20259;-81
2023/03/01 10:57:32;;;;;;;35.30;19.75;;;4.90;63.70;;;;;;4941526;29;20207;-80
2023/03/01 11:00:23;;;;;;;34.53;19.02;;;4.90;63.60;;;;;;4931663;29;20213;-80
2023/03/01 11:03:03;;;;;;;34.67;19.73;;;4.90;63.20;;;;;;4931731;29;20233;-81
2023/03/01 11:05:33;;;;;;;32.28;18.88;;;4.90;63.30;;;;;;4921776;29;20215;-80
2023/03/01 11:08:04;;;;;;;31.77;19.88;;;4.90;63.40;;;;;;4915599;29;20678;-80
2023/03/01 11:10:34;;;;;;;32.13;19.50;;;4.90;63.10;;;;;;4936359;29;20247;-80
2023/03/01 11:13:14;;;;;;;30.42;19.23;;;4.90;63.20;;;;;;4934734;29;20201;-80
2023/03/01 11:15:42;;;;;;;31.08;18.15;;;5.00;63.20;;;;;;4930803;29;20204;-80
2023/03/01 11:18:21;;;;;;;34.70;19.65;;;5.00;63.10;;;;;;4933266;29;20208;-81
2023/03/01 11:21:00;;;;;;;31.75;19.52;;;5.00;63.00;;;;;;4934002;29;20271;-78
2023/03/01 11:23:32;;;;;;;31.85;19.20;;;5.00;63.00;;;;;;4933323;29;20210;-79
2023/03/01 11:26:03;;;;;;;34.05;18.73;;;5.20;63.00;;;;;;4933932;29;20651;-79
2023/03/01 11:28:37;;;;;;;32.30;19.27;;;5.30;63.00;;;;;;4934234;29;20217;-79
2023/03/01 11:31:08;;;;;;;33.17;20.00;;;5.30;62.60;;;;;;4925147;29;20232;-79
2023/03/01 11:33:44;;;;;;;33.03;19.23;;;5.40;62.70;;;;;;4933944;29;20207;-80
2023/03/01 11:36:20;;;;;;;30.17;19.15;;;5.50;62.60;;;;;;4941243;29;20217;-78
2023/03/01 11:38:50;;;;;;;31.83;18.92;;;5.50;62.40;;;;;;4941501;29;20652;-80
2023/03/01 11:41:22;;;;;;;30.50;19.50;;;5.50;62.30;;;;;;4939774;29;20221;-79
2023/03/01 11:43:53;;;;;;;35.58;19.48;;;5.60;62.00;;;;;;4940556;29;20213;-77
2023/03/01 11:46:54;;;;;;;35.80;19.55;;;5.70;62.10;;;;;;4940205;29;20199;-79
2023/03/01 11:49:45;;;;;;;31.20;19.33;;;5.70;62.20;;;;;;4923957;29;20215;-79
2023/03/01 11:52:23;;;;;;;43.90;22.42;;;5.80;62.30;;;;;;4942203;29;20683;-78
2023/03/01 11:55:05;;;;;;;33.08;18.42;;;5.90;62.10;;;;;;4933299;29;20660;-78
2023/03/01 11:57:47;;;;;;;30.02;18.80;;;5.90;62.20;;;;;;4936044;29;20210;-78
2023/03/01 12:00:27;;;;;;;30.27;18.77;;;6.10;61.80;;;;;;4921013;29;20231;-79
2023/03/01 12:03:11;;;;;;;31.00;18.38;;;6.10;61.40;;;;;;4945119;29;20211;-78
2023/03/01 12:06:06;;;;;;;28.85;16.58;;;6.10;61.40;;;;;;4936672;29;20676;-80
2023/03/01 12:08:38;;;;;;;35.17;18.40;;;6.10;61.20;;;;;;4916009;29;20671;-78
2023/03/01 12:11:22;;;;;;;32.00;19.10;;;6.10;61.40;;;;;;4938963;29;20842;-79
2023/03/01 12:14:24;;;;;;;36.30;18.27;;;6.20;61.40;;;;;;4927618;29;20199;-80
2023/03/01 12:17:05;;;;;;;33.60;17.77;;;6.20;61.30;;;;;;4935479;29;20202;-79
2023/03/01 12:19:44;;;;;;;37.42;21.35;;;6.30;61.40;;;;;;4939758;29;20209;-79
2023/03/01 12:22:24;;;;;;;30.30;18.60;;;6.30;61.30;;;;;;4939798;29;20540;-79
2023/03/01 12:25:17;;;;;;;28.50;17.30;;;6.30;61.10;;;;;;4936146;29;20209;-78
2023/03/01 12:28:08;;;;;;;36.35;18.45;;;6.40;61.10;;;;;;4937153;29;20300;-78
2023/03/01 12:31:02;;;;;;;29.60;16.73;;;6.40;61.20;;;;;;4937860;29;20229;-79
2023/03/01 12:33:42;;;;;;;35.17;17.60;;;6.40;60.40;;;;;;4925258;29;20199;-78
2023/03/01 12:36:40;;;;;;;28.23;16.98;;;6.50;60.80;;;;;;4918105;29;20196;-80
2023/03/01 12:39:23;;;;;;;40.05;22.02;;;6.50;60.40;;;;;;4927241;29;20278;-77
2023/03/01 12:41:59;;;;;;;30.10;17.80;;;6.50;60.10;;;;;;4938370;29;20235;-79
2023/03/01 12:44:57;;;;;;;32.80;19.50;;;6.60;60.60;;;;;;4935203;29;20211;-78
2023/03/01 12:47:44;;;;;;;31.52;17.67;;;6.70;60.50;;;;;;4926829;29;20241;-78
2023/03/01 12:50:19;;;;;;;26.05;15.88;;;6.70;60.10;;;;;;4932973;29;20201;-78
2023/03/01 12:52:52;;;;;;;30.52;16.02;;;6.70;59.90;;;;;;4932397;29;20213;-79
2023/03/01 12:55:29;;;;;;;29.55;17.67;;;6.80;60.10;;;;;;4941711;29;20210;-79
2023/03/01 12:58:09;;;;;;;28.60;16.02;;;6.70;59.60;;;;;;4932191;29;20449;-80
2023/03/01 13:00:46;;;;;;;36.17;20.67;;;6.70;59.60;;;;;;4940187;29;20331;-79